sensor_id;sensor_type;location;lat;lon;timestamp;pressure;altitude;pressure_sealevel;temperature;humidity
20860;BME280;10590;48.154;11.514;2024-01-06T00:04:15;94442.63;;;5.22;100.00
20860;BME280;10590;48.154;11.514;2024-01-06T00:09:37;94448.72;;;5.66;100.00
20860;BME280;10590;48.154;11.514;2024-01-06T00:15:03;94444.03;;;5.54;100.00
20860;BME280;10590;48.154;11.514;2024-01-06T00:20:24;94439.38;;;5.77;99.67
20860;BME280;10590;48.154;11.514;2024-01-06T00:25:46;94433.31;;;5.68;99.72
20860;BME280;10590;48.154;11.514;2024-01-06T00:31:09;94428.16;;;5.54;100.00
20860;BME280;10590;48.154;11.514;2024-01-06T00:36:31;94425.81;;;5.70;99.93
20860;BME280;10590;48.154;11.514;2024-01-06T00:41:52;94433.78;;;5.35;100.00
20860;BME280;10590;48.154;11.514;2024-01-06T00:47:15;94430.03;;;5.45;100.00
20860;BME280;10590;48.154;11.514;2024-01-06T00:52:37;94431.28;;;5.65;100.00
20860;BME280;10590;48.154;11.514;2024-01-06T00:57:59;94420.53;;;5.70;100.00
20860;BME280;10590;48.154;11.514;2024-01-06T01:03:33;94421.94;;;5.67;100.00
20860;BME280;10590;48.154;11.514;2024-01-06T01:08:55;94415.56;;;5.60;99.67
20860;BME280;10590;48.154;11.514;2024-01-06T01:14:16;94428.50;;;5.44;100.00
20860;BME280;10590;48.154;11.514;2024-01-06T01:19:40;94431.13;;;5.35;100.00
20860;BME280;10590;48.154;11.514;2024-01-06T01:25:02;94435.97;;;5.42;100.00
20860;BME280;10590;48.154;11.514;2024-01-06T01:30:33;94433.94;;;5.65;100.00
20860;BME280;10590;48.154;11.514;2024-01-06T01:35:56;94431.72;;;5.75;99.05
20860;BME280;10590;48.154;11.514;2024-01-06T01:41:18;94434.38;;;5.75;98.30
20860;BME280;10590;48.154;11.514;2024-01-06T01:46:40;94442.03;;;5.42;98.21
20860;BME280;10590;48.154;11.514;2024-01-06T01:52:03;94452.13;;;5.58;98.99
20860;BME280;10590;48.154;11.514;2024-01-06T01:57:25;94450.28;;;5.41;98.61
20860;BME280;10590;48.154;11.514;2024-01-06T02:02:47;94441.09;;;5.47;98.54
20860;BME280;10590;48.154;11.514;2024-01-06T02:08:10;94448.72;;;5.31;99.80
20860;BME280;10590;48.154;11.514;2024-01-06T02:13:35;94452.44;;;5.39;100.00
20860;BME280;10590;48.154;11.514;2024-01-06T02:18:57;94454.63;;;5.37;99.89
20860;BME280;10590;48.154;11.514;2024-01-06T02:24:21;94449.66;;;5.44;99.80
20860;BME280;10590;48.154;11.514;2024-01-06T02:29:42;94452.75;;;5.29;100.00
20860;BME280;10590;48.154;11.514;2024-01-06T02:35:05;94448.88;;;5.43;99.92
20860;BME280;10590;48.154;11.514;2024-01-06T02:40:28;94454.16;;;5.26;100.00
20860;BME280;10590;48.154;11.514;2024-01-06T02:45:49;94463.78;;;5.22;100.00
20860;BME280;10590;48.154;11.514;2024-01-06T02:51:11;94461.78;;;5.28;100.00
20860;BME280;10590;48.154;11.514;2024-01-06T02:56:35;94462.66;;;5.15;100.00
20860;BME280;10590;48.154;11.514;2024-01-06T03:01:59;94468.84;;;5.01;100.00
20860;BME280;10590;48.154;11.514;2024-01-06T03:07:21;94463.56;;;5.01;100.00
20860;BME280;10590;48.154;11.514;2024-01-06T03:12:44;94468.84;;;5.01;100.00
20860;BME280;10590;48.154;11.514;2024-01-06T03:18:06;94474.13;;;4.93;100.00
20860;BME280;10590;48.154;11.514;2024-01-06T03:23:29;94483.16;;;5.00;100.00
20860;BME280;10590;48.154;11.514;2024-01-06T03:28:52;94477.69;;;4.88;100.00
20860;BME280;10590;48.154;11.514;2024-01-06T03:34:13;94485.28;;;4.81;100.00
20860;BME280;10590;48.154;11.514;2024-01-06T03:39:35;94484.47;;;4.72;100.00
20860;BME280;10590;48.154;11.514;2024-01-06T03:44:58;94481.28;;;4.92;100.00
20860;BME280;10590;48.154;11.514;2024-01-06T03:50:20;94484.03;;;4.78;100.00
20860;BME280;10590;48.154;11.514;2024-01-06T03:55:41;94494.91;;;4.77;100.00
20860;BME280;10590;48.154;11.514;2024-01-06T04:01:05;94493.22;;;4.81;100.00
20860;BME280;10590;48.154;11.514;2024-01-06T04:06:26;94504.53;;;4.73;100.00
20860;BME280;10590;48.154;11.514;2024-01-06T04:11:48;94508.53;;;4.62;100.00
20860;BME280;10590;48.154;11.514;2024-01-06T04:17:11;94519.88;;;4.62;100.00
20860;BME280;10590;48.154;11.514;2024-01-06T04:22:33;94514.97;;;4.47;99.58
20860;BME280;10590;48.154;11.514;2024-01-06T04:27:54;94519.84;;;4.54;98.64
20860;BME280;10590;48.154;11.514;2024-01-06T04:33:18;94512.50;;;4.51;98.09
20860;BME280;10590;48.154;11.514;2024-01-06T04:38:39;94523.28;;;4.63;98.25
20860;BME280;10590;48.154;11.514;2024-01-06T04:44:01;94528.44;;;4.37;97.91
20860;BME280;10590;48.154;11.514;2024-01-06T04:49:24;94532.25;;;4.53;98.49
20860;BME280;10590;48.154;11.514;2024-01-06T04:54:46;94533.25;;;4.35;99.32
20860;BME280;10590;48.154;11.514;2024-01-06T05:00:08;94533.16;;;4.26;98.80
20860;BME280;10590;48.154;11.514;2024-01-06T05:05:32;94543.38;;;3.97;97.97
20860;BME280;10590;48.154;11.514;2024-01-06T05:10:53;94548.41;;;3.84;97.54
20860;BME280;10590;48.154;11.514;2024-01-06T05:16:15;94556.69;;;3.92;97.92
20860;BME280;10590;48.154;11.514;2024-01-06T05:21:38;94570.25;;;3.99;97.88
20860;BME280;10590;48.154;11.514;2024-01-06T05:27:00;94567.13;;;3.97;98.30
20860;BME280;10590;48.154;11.514;2024-01-06T05:32:22;94563.47;;;3.84;97.85
20860;BME280;10590;48.154;11.514;2024-01-06T05:37:45;94573.41;;;3.87;97.55
20860;BME280;10590;48.154;11.514;2024-01-06T05:43:08;94587.72;;;3.72;98.82
20860;BME280;10590;48.154;11.514;2024-01-06T05:48:29;94601.69;;;3.73;99.78
20860;BME280;10590;48.154;11.514;2024-01-06T05:53:52;94608.25;;;3.75;100.00
20860;BME280;10590;48.154;11.514;2024-01-06T05:59:14;94624.94;;;3.84;100.00
20860;BME280;10590;48.154;11.514;2024-01-06T06:04:36;94612.97;;;3.51;99.94
20860;BME280;10590;48.154;11.514;2024-01-06T06:09:59;94635.81;;;3.42;99.83
20860;BME280;10590;48.154;11.514;2024-01-06T06:15:23;94628.28;;;3.63;99.35
20860;BME280;10590;48.154;11.514;2024-01-06T06:20:45;94638.34;;;3.61;99.30
20860;BME280;10590;48.154;11.514;2024-01-06T06:26:08;94634.84;;;3.51;99.28
20860;BME280;10590;48.154;11.514;2024-01-06T06:31:32;94653.78;;;3.40;99.40
20860;BME280;10590;48.154;11.514;2024-01-06T06:36:53;94659.63;;;3.23;100.00
20860;BME280;10590;48.154;11.514;2024-01-06T06:42:16;94672.44;;;3.57;100.00
20860;BME280;10590;48.154;11.514;2024-01-06T06:47:38;94672.94;;;3.59;99.76
20860;BME280;10590;48.154;11.514;2024-01-06T06:53:00;94676.66;;;3.58;99.54
20860;BME280;10590;48.154;11.514;2024-01-06T06:58:24;94656.09;;;3.28;99.47
20860;BME280;10590;48.154;11.514;2024-01-06T07:03:46;94673.72;;;3.73;98.29
20860;BME280;10590;48.154;11.514;2024-01-06T07:09:07;94680.53;;;3.74;96.93
20860;BME280;10590;48.154;11.514;2024-01-06T07:14:30;94675.88;;;3.58;98.95
20860;BME280;10590;48.154;11.514;2024-01-06T07:19:52;94678.59;;;3.80;98.38
20860;BME280;10590;48.154;11.514;2024-01-06T07:25:14;94703.47;;;3.46;98.71
20860;BME280;10590;48.154;11.514;2024-01-06T07:30:37;94694.81;;;3.60;98.94
20860;BME280;10590;48.154;11.514;2024-01-06T07:35:59;94700.88;;;3.60;99.17
20860;BME280;10590;48.154;11.514;2024-01-06T07:41:21;94715.34;;;3.63;98.74
20860;BME280;10590;48.154;11.514;2024-01-06T07:46:44;94719.88;;;3.30;99.16
20860;BME280;10590;48.154;11.514;2024-01-06T07:52:06;94729.06;;;3.46;99.64
20860;BME280;10590;48.154;11.514;2024-01-06T07:57:27;94737.66;;;3.38;100.00
20860;BME280;10590;48.154;11.514;2024-01-06T08:02:50;94735.41;;;3.45;99.54
20860;BME280;10590;48.154;11.514;2024-01-06T08:08:12;94744.50;;;3.39;99.68
20860;BME280;10590;48.154;11.514;2024-01-06T08:13:37;94742.16;;;3.37;100.00
20860;BME280;10590;48.154;11.514;2024-01-06T08:19:01;94750.19;;;3.13;99.54
20860;BME280;10590;48.154;11.514;2024-01-06T08:24:23;94746.16;;;3.35;99.00
20860;BME280;10590;48.154;11.514;2024-01-06T08:29:45;94758.16;;;3.41;96.97
20860;BME280;10590;48.154;11.514;2024-01-06T08:35:09;94758.84;;;3.33;97.32
20860;BME280;10590;48.154;11.514;2024-01-06T08:40:31;94758.91;;;3.60;96.70
20860;BME280;10590;48.154;11.514;2024-01-06T08:45:53;94763.91;;;3.29;95.77
20860;BME280;10590;48.154;11.514;2024-01-06T08:51:19;94768.31;;;3.34;96.57
20860;BME280;10590;48.154;11.514;2024-01-06T08:56:41;94780.91;;;3.37;98.04
20860;BME280;10590;48.154;11.514;2024-01-06T09:02:03;94776.53;;;3.46;97.21
20860;BME280;10590;48.154;11.514;2024-01-06T09:07:26;94783.44;;;3.28;96.85
20860;BME280;10590;48.154;11.514;2024-01-06T09:12:48;94775.69;;;3.50;97.84
20860;BME280;10590;48.154;11.514;2024-01-06T09:18:10;94779.91;;;3.51;96.59
20860;BME280;10590;48.154;11.514;2024-01-06T09:23:34;94787.63;;;3.62;96.65
20860;BME280;10590;48.154;11.514;2024-01-06T09:28:56;94782.94;;;3.59;94.30
20860;BME280;10590;48.154;11.514;2024-01-06T09:34:17;94787.81;;;3.65;94.68
20860;BME280;10590;48.154;11.514;2024-01-06T09:39:40;94796.44;;;3.84;95.53
20860;BME280;10590;48.154;11.514;2024-01-06T09:45:02;94799.38;;;3.83;94.72
20860;BME280;10590;48.154;11.514;2024-01-06T09:50:24;94789.31;;;3.71;95.76
20860;BME280;10590;48.154;11.514;2024-01-06T09:55:48;94808.22;;;3.60;96.78
20860;BME280;10590;48.154;11.514;2024-01-06T10:01:13;94795.91;;;3.55;97.15
20860;BME280;10590;48.154;11.514;2024-01-06T10:06:35;94808.63;;;3.34;97.70
20860;BME280;10590;48.154;11.514;2024-01-06T10:11:59;94797.38;;;3.47;97.76
20860;BME280;10590;48.154;11.514;2024-01-06T10:17:21;94780.97;;;3.50;98.01
20860;BME280;10590;48.154;11.514;2024-01-06T10:22:43;94778.75;;;3.85;97.49
20860;BME280;10590;48.154;11.514;2024-01-06T10:28:06;94777.09;;;3.89;96.15
20860;BME280;10590;48.154;11.514;2024-01-06T10:33:28;94787.16;;;3.87;96.01
20860;BME280;10590;48.154;11.514;2024-01-06T10:38:49;94783.06;;;3.81;96.05
20860;BME280;10590;48.154;11.514;2024-01-06T10:44:14;94784.28;;;3.56;95.71
20860;BME280;10590;48.154;11.514;2024-01-06T10:49:36;94783.13;;;3.62;96.06
20860;BME280;10590;48.154;11.514;2024-01-06T10:54:58;94774.94;;;3.77;95.68
20860;BME280;10590;48.154;11.514;2024-01-06T11:00:22;94772.00;;;3.79;95.26
20860;BME280;10590;48.154;11.514;2024-01-06T11:05:44;94772.31;;;3.77;94.95
20860;BME280;10590;48.154;11.514;2024-01-06T11:11:06;94775.44;;;3.93;95.46
20860;BME280;10590;48.154;11.514;2024-01-06T11:16:34;94769.16;;;3.89;94.16
20860;BME280;10590;48.154;11.514;2024-01-06T11:21:56;94766.81;;;3.88;93.87
20860;BME280;10590;48.154;11.514;2024-01-06T11:27:18;94765.06;;;3.83;95.04
20860;BME280;10590;48.154;11.514;2024-01-06T11:32:42;94767.91;;;3.73;95.11
20860;BME280;10590;48.154;11.514;2024-01-06T11:38:07;94758.72;;;3.70;95.90
20860;BME280;10590;48.154;11.514;2024-01-06T11:43:28;94761.34;;;3.70;96.17
20860;BME280;10590;48.154;11.514;2024-01-06T11:48:54;94755.00;;;3.71;95.98
20860;BME280;10590;48.154;11.514;2024-01-06T11:54:16;94754.03;;;3.81;96.41
20860;BME280;10590;48.154;11.514;2024-01-06T11:59:38;94753.84;;;3.77;97.12
20860;BME280;10590;48.154;11.514;2024-01-06T12:05:04;94730.66;;;3.88;96.62
20860;BME280;10590;48.154;11.514;2024-01-06T12:10:29;94734.84;;;4.03;95.56
20860;BME280;10590;48.154;11.514;2024-01-06T12:15:50;94737.59;;;4.11;95.57
20860;BME280;10590;48.154;11.514;2024-01-06T12:21:13;94730.16;;;4.00;95.00
20860;BME280;10590;48.154;11.514;2024-01-06T12:26:35;94733.00;;;4.03;95.93
20860;BME280;10590;48.154;11.514;2024-01-06T12:31:59;94726.31;;;4.20;96.04
20860;BME280;10590;48.154;11.514;2024-01-06T12:37:22;94733.28;;;4.15;94.88
20860;BME280;10590;48.154;11.514;2024-01-06T12:42:44;94724.91;;;3.86;95.74
20860;BME280;10590;48.154;11.514;2024-01-06T12:48:06;94738.56;;;4.02;95.34
20860;BME280;10590;48.154;11.514;2024-01-06T12:53:29;94739.66;;;3.87;93.77
20860;BME280;10590;48.154;11.514;2024-01-06T12:58:51;94743.47;;;3.81;92.76
20860;BME280;10590;48.154;11.514;2024-01-06T13:04:13;94725.59;;;3.78;92.74
20860;BME280;10590;48.154;11.514;2024-01-06T13:09:36;94750.41;;;3.91;93.24
20860;BME280;10590;48.154;11.514;2024-01-06T13:14:58;94750.03;;;3.83;93.40
20860;BME280;10590;48.154;11.514;2024-01-06T13:20:21;94748.56;;;3.77;93.76
20860;BME280;10590;48.154;11.514;2024-01-06T13:25:44;94750.09;;;3.51;93.67
20860;BME280;10590;48.154;11.514;2024-01-06T13:31:05;94763.94;;;3.43;95.52
20860;BME280;10590;48.154;11.514;2024-01-06T13:36:27;94757.81;;;3.47;94.32
20860;BME280;10590;48.154;11.514;2024-01-06T13:41:50;94772.69;;;3.25;94.68
20860;BME280;10590;48.154;11.514;2024-01-06T13:47:12;94768.28;;;3.20;96.12
20860;BME280;10590;48.154;11.514;2024-01-06T13:52:34;94782.66;;;3.28;96.23
20860;BME280;10590;48.154;11.514;2024-01-06T13:57:57;94777.53;;;3.17;96.47
20860;BME280;10590;48.154;11.514;2024-01-06T14:03:19;94772.81;;;3.01;96.44
20860;BME280;10590;48.154;11.514;2024-01-06T14:08:42;94785.16;;;2.86;98.23
20860;BME280;10590;48.154;11.514;2024-01-06T14:14:05;94786.28;;;2.80;98.68
20860;BME280;10590;48.154;11.514;2024-01-06T14:19:27;94787.00;;;2.86;98.39
20860;BME280;10590;48.154;11.514;2024-01-06T14:24:48;94784.22;;;2.77;98.93
20860;BME280;10590;48.154;11.514;2024-01-06T14:30:12;94792.47;;;2.90;98.50
20860;BME280;10590;48.154;11.514;2024-01-06T14:35:34;94801.53;;;2.83;98.91
20860;BME280;10590;48.154;11.514;2024-01-06T14:40:55;94790.22;;;2.64;98.63
20860;BME280;10590;48.154;11.514;2024-01-06T14:46:19;94806.84;;;2.60;99.10
20860;BME280;10590;48.154;11.514;2024-01-06T14:51:40;94806.34;;;2.58;99.05
20860;BME280;10590;48.154;11.514;2024-01-06T14:57:02;94814.88;;;2.31;99.35
20860;BME280;10590;48.154;11.514;2024-01-06T15:02:25;94820.75;;;2.65;99.12
20860;BME280;10590;48.154;11.514;2024-01-06T15:07:47;94821.16;;;2.53;98.79
20860;BME280;10590;48.154;11.514;2024-01-06T15:13:08;94825.97;;;2.46;98.89
20860;BME280;10590;48.154;11.514;2024-01-06T15:18:32;94834.50;;;2.38;98.92
20860;BME280;10590;48.154;11.514;2024-01-06T15:23:55;94820.22;;;2.02;99.07
20860;BME280;10590;48.154;11.514;2024-01-06T15:29:17;94827.69;;;2.37;98.97
20860;BME280;10590;48.154;11.514;2024-01-06T15:34:40;94832.00;;;2.28;98.11
20860;BME280;10590;48.154;11.514;2024-01-06T15:40:02;94831.56;;;2.21;98.47
20860;BME280;10590;48.154;11.514;2024-01-06T15:45:24;94839.13;;;2.04;97.89
20860;BME280;10590;48.154;11.514;2024-01-06T15:50:47;94837.50;;;2.08;98.32
20860;BME280;10590;48.154;11.514;2024-01-06T15:56:08;94831.41;;;1.88;98.52
20860;BME280;10590;48.154;11.514;2024-01-06T16:01:30;94840.41;;;1.82;98.83
20860;BME280;10590;48.154;11.514;2024-01-06T16:06:54;94842.75;;;1.84;98.17
20860;BME280;10590;48.154;11.514;2024-01-06T16:12:16;94847.50;;;1.82;99.05
20860;BME280;10590;48.154;11.514;2024-01-06T16:17:37;94854.97;;;1.70;99.30
20860;BME280;10590;48.154;11.514;2024-01-06T16:23:00;94858.31;;;1.80;99.08
20860;BME280;10590;48.154;11.514;2024-01-06T16:28:22;94856.81;;;1.69;99.59
20860;BME280;10590;48.154;11.514;2024-01-06T16:33:44;94837.53;;;1.50;99.68
20860;BME280;10590;48.154;11.514;2024-01-06T16:39:07;94858.53;;;1.55;100.00
20860;BME280;10590;48.154;11.514;2024-01-06T16:44:29;94850.50;;;1.70;99.71
20860;BME280;10590;48.154;11.514;2024-01-06T16:49:51;94860.22;;;1.70;99.81
20860;BME280;10590;48.154;11.514;2024-01-06T16:55:14;94855.19;;;1.78;99.37
20860;BME280;10590;48.154;11.514;2024-01-06T17:00:36;94853.38;;;1.74;99.89
20860;BME280;10590;48.154;11.514;2024-01-06T17:05:57;94860.88;;;1.56;99.86
20860;BME280;10590;48.154;11.514;2024-01-06T17:11:21;94862.13;;;1.64;99.75
20860;BME280;10590;48.154;11.514;2024-01-06T17:16:42;94858.03;;;1.53;99.78
20860;BME280;10590;48.154;11.514;2024-01-06T17:22:04;94861.38;;;1.58;98.97
20860;BME280;10590;48.154;11.514;2024-01-06T17:27:27;94858.88;;;1.14;99.66
20860;BME280;10590;48.154;11.514;2024-01-06T17:32:49;94868.50;;;1.24;100.00
20860;BME280;10590;48.154;11.514;2024-01-06T17:38:10;94863.56;;;1.17;99.73
20860;BME280;10590;48.154;11.514;2024-01-06T17:43:33;94874.22;;;1.31;99.15
20860;BME280;10590;48.154;11.514;2024-01-06T17:48:56;94883.44;;;1.28;99.50
20860;BME280;10590;48.154;11.514;2024-01-06T17:54:18;94880.38;;;1.16;99.42
20860;BME280;10590;48.154;11.514;2024-01-06T17:59:42;94876.97;;;1.16;100.00
20860;BME280;10590;48.154;11.514;2024-01-06T18:05:04;94883.81;;;1.17;99.96
20860;BME280;10590;48.154;11.514;2024-01-06T18:10:26;94887.19;;;1.22;100.00
20860;BME280;10590;48.154;11.514;2024-01-06T18:15:49;94887.00;;;1.09;100.00
20860;BME280;10590;48.154;11.514;2024-01-06T18:21:11;94889.53;;;1.24;99.67
20860;BME280;10590;48.154;11.514;2024-01-06T18:26:32;94889.78;;;1.27;99.36
20860;BME280;10590;48.154;11.514;2024-01-06T18:31:55;94877.69;;;1.26;98.56
20860;BME280;10590;48.154;11.514;2024-01-06T18:37:17;94895.22;;;1.36;99.10
20860;BME280;10590;48.154;11.514;2024-01-06T18:42:39;94896.03;;;1.32;99.12
20860;BME280;10590;48.154;11.514;2024-01-06T18:48:02;94892.09;;;1.34;98.86
20860;BME280;10590;48.154;11.514;2024-01-06T18:53:25;94890.97;;;1.06;98.57
20860;BME280;10590;48.154;11.514;2024-01-06T18:58:48;94888.59;;;1.10;99.67
20860;BME280;10590;48.154;11.514;2024-01-06T19:04:11;94891.47;;;1.08;99.84
20860;BME280;10590;48.154;11.514;2024-01-06T19:09:33;94878.09;;;1.05;99.33
20860;BME280;10590;48.154;11.514;2024-01-06T19:14:54;94878.38;;;1.03;99.65
20860;BME280;10590;48.154;11.514;2024-01-06T19:20:17;94880.44;;;1.11;99.00
20860;BME280;10590;48.154;11.514;2024-01-06T19:25:39;94874.16;;;1.07;98.95
20860;BME280;10590;48.154;11.514;2024-01-06T19:31:01;94879.94;;;1.04;98.92
20860;BME280;10590;48.154;11.514;2024-01-06T19:36:24;94876.81;;;1.02;99.82
20860;BME280;10590;48.154;11.514;2024-01-06T19:41:46;94880.00;;;0.94;99.23
20860;BME280;10590;48.154;11.514;2024-01-06T19:47:08;94878.97;;;0.95;100.00
20860;BME280;10590;48.154;11.514;2024-01-06T19:52:31;94883.69;;;0.93;99.79
20860;BME280;10590;48.154;11.514;2024-01-06T19:57:53;94882.06;;;1.02;99.67
20860;BME280;10590;48.154;11.514;2024-01-06T20:03:14;94881.03;;;0.98;99.55
20860;BME280;10590;48.154;11.514;2024-01-06T20:08:37;94865.09;;;0.79;100.00
20860;BME280;10590;48.154;11.514;2024-01-06T20:13:59;94881.28;;;1.02;99.36
20860;BME280;10590;48.154;11.514;2024-01-06T20:19:21;94885.50;;;0.98;100.00
20860;BME280;10590;48.154;11.514;2024-01-06T20:24:46;94880.06;;;0.84;100.00
20860;BME280;10590;48.154;11.514;2024-01-06T20:30:08;94881.59;;;0.95;100.00
20860;BME280;10590;48.154;11.514;2024-01-06T20:35:34;94882.53;;;1.09;99.98
20860;BME280;10590;48.154;11.514;2024-01-06T20:40:58;94876.38;;;0.90;100.00
20860;BME280;10590;48.154;11.514;2024-01-06T20:46:20;94867.41;;;0.96;100.00
20860;BME280;10590;48.154;11.514;2024-01-06T20:51:46;94861.66;;;0.89;100.00
20860;BME280;10590;48.154;11.514;2024-01-06T20:57:12;94857.16;;;0.94;100.00
20860;BME280;10590;48.154;11.514;2024-01-06T21:02:34;94858.75;;;0.90;100.00
20860;BME280;10590;48.154;11.514;2024-01-06T21:07:55;94850.38;;;0.88;100.00
20860;BME280;10590;48.154;11.514;2024-01-06T21:13:18;94845.09;;;0.93;100.00
20860;BME280;10590;48.154;11.514;2024-01-06T21:18:40;94859.03;;;0.89;100.00
20860;BME280;10590;48.154;11.514;2024-01-06T21:24:02;94854.88;;;0.78;100.00
20860;BME280;10590;48.154;11.514;2024-01-06T21:29:25;94850.88;;;0.85;100.00
20860;BME280;10590;48.154;11.514;2024-01-06T21:34:47;94846.94;;;0.93;100.00
20860;BME280;10590;48.154;11.514;2024-01-06T21:40:09;94846.03;;;0.63;100.00
20860;BME280;10590;48.154;11.514;2024-01-06T21:45:33;94852.53;;;0.76;100.00
20860;BME280;10590;48.154;11.514;2024-01-06T21:50:55;94849.59;;;0.88;100.00
20860;BME280;10590;48.154;11.514;2024-01-06T21:56:17;94849.88;;;0.81;100.00
20860;BME280;10590;48.154;11.514;2024-01-06T22:01:40;94849.06;;;0.86;100.00
20860;BME280;10590;48.154;11.514;2024-01-06T22:07:02;94849.66;;;0.73;100.00
20860;BME280;10590;48.154;11.514;2024-01-06T22:12:24;94858.53;;;0.87;100.00
20860;BME280;10590;48.154;11.514;2024-01-06T22:17:47;94850.16;;;0.75;100.00
20860;BME280;10590;48.154;11.514;2024-01-06T22:23:09;94853.84;;;0.74;100.00
20860;BME280;10590;48.154;11.514;2024-01-06T22:28:31;94851.06;;;0.55;100.00
20860;BME280;10590;48.154;11.514;2024-01-06T22:33:54;94853.84;;;0.74;100.00
20860;BME280;10590;48.154;11.514;2024-01-06T22:39:16;94834.47;;;0.64;100.00
20860;BME280;10590;48.154;11.514;2024-01-06T22:44:38;94828.16;;;0.66;100.00
20860;BME280;10590;48.154;11.514;2024-01-06T22:50:02;94847.75;;;0.83;100.00
20860;BME280;10590;48.154;11.514;2024-01-06T22:55:23;94851.97;;;0.79;100.00
20860;BME280;10590;48.154;11.514;2024-01-06T23:00:49;94840.38;;;0.85;100.00
20860;BME280;10590;48.154;11.514;2024-01-06T23:06:13;94832.53;;;0.80;100.00
20860;BME280;10590;48.154;11.514;2024-01-06T23:11:37;94854.84;;;0.83;100.00
20860;BME280;10590;48.154;11.514;2024-01-06T23:16:59;94853.78;;;0.84;100.00
20860;BME280;10590;48.154;11.514;2024-01-06T23:22:27;94854.16;;;0.67;100.00
20860;BME280;10590;48.154;11.514;2024-01-06T23:27:49;94856.44;;;0.79;100.00
20860;BME280;10590;48.154;11.514;2024-01-06T23:33:11;94858.31;;;0.73;100.00
20860;BME280;10590;48.154;11.514;2024-01-06T23:38:34;94866.19;;;0.73;100.00
20860;BME280;10590;48.154;11.514;2024-01-06T23:43:56;94852.59;;;0.66;100.00
20860;BME280;10590;48.154;11.514;2024-01-06T23:49:18;94863.28;;;0.80;100.00
20860;BME280;10590;48.154;11.514;2024-01-06T23:54:41;94857.00;;;0.76;100.00
